Time;durP1;ratioP1;P1;durP2;ratioP2;P2;SDS_P1;SDS_P2;PMS_P1;PMS_P2;Temp;Humidity;BMP_temperature;BMP_pressure;BME280_temperature;BME280_humidity;BME280_pressure;Samples;Min_cycle;Max_cycle;Signal;HPM_P1;HPM_P2
2023/09/30 00:02:15;;;;;;;13.07;5.75;;;18.10;64.90;;;;;;5077444;28;20491;-36
2023/09/30 00:04:43;;;;;;;11.27;5.05;;;18.10;64.80;;;;;;5078011;28;20048;-36
2023/09/30 00:07:11;;;;;;;17.50;6.95;;;18.10;64.80;;;;;;5080043;28;20496;-36
2023/09/30 00:09:39;;;;;;;13.02;5.32;;;18.10;64.90;;;;;;5077945;28;20059;-37
2023/09/30 00:12:07;;;;;;;12.50;6.35;;;18.10;65.00;;;;;;5079183;28;20044;-35
2023/09/30 00:14:35;;;;;;;15.30;6.03;;;18.10;65.00;;;;;;5079988;28;20056;-37
2023/09/30 00:17:03;;;;;;;13.30;6.05;;;18.10;64.90;;;;;;5078551;28;20059;-36
2023/09/30 00:19:32;;;;;;;13.90;6.60;;;18.10;64.80;;;;;;5079161;28;20059;-36
2023/09/30 00:21:59;;;;;;;11.27;6.30;;;18.10;64.60;;;;;;5079248;28;20048;-36
2023/09/30 00:24:27;;;;;;;12.48;6.47;;;18.00;64.40;;;;;;5083019;28;20415;-36
2023/09/30 00:26:56;;;;;;;13.52;6.43;;;18.00;64.20;;;;;;5084083;28;20052;-38
2023/09/30 00:29:23;;;;;;;14.25;6.18;;;18.10;63.90;;;;;;5083740;28;20055;-36
2023/09/30 00:31:50;;;;;;;15.77;6.45;;;18.00;63.70;;;;;;5081167;28;20123;-36
2023/09/30 00:34:18;;;;;;;12.02;6.38;;;18.00;63.60;;;;;;5082147;28;20056;-36
2023/09/30 00:36:45;;;;;;;13.63;6.60;;;18.00;63.50;;;;;;5083252;28;20056;-36
2023/09/30 00:39:12;;;;;;;20.67;7.00;;;18.00;63.40;;;;;;5082842;28;20055;-36
2023/09/30 00:41:40;;;;;;;13.52;7.18;;;18.00;63.40;;;;;;5083034;28;20059;-36
2023/09/30 00:44:08;;;;;;;14.88;7.00;;;18.00;63.40;;;;;;5082774;28;20485;-38
2023/09/30 00:46:39;;;;;;;13.75;6.95;;;18.00;63.40;;;;;;5082318;28;20056;-38
2023/09/30 00:49:07;;;;;;;18.73;6.97;;;17.90;63.30;;;;;;5082961;28;20662;-36
2023/09/30 00:51:34;;;;;;;12.55;7.05;;;17.90;63.40;;;;;;5082790;28;20396;-37
2023/09/30 00:54:03;;;;;;;17.60;7.13;;;17.90;63.50;;;;;;5083271;28;20048;-37
2023/09/30 00:56:31;;;;;;;18.45;7.45;;;17.90;63.40;;;;;;5082672;28;20055;-35
2023/09/30 00:59:00;;;;;;;18.65;7.28;;;17.90;63.50;;;;;;5083155;28;20052;-36
2023/09/30 01:01:29;;;;;;;15.07;6.78;;;17.90;63.20;;;;;;5080164;28;20051;-36
2023/09/30 01:03:56;;;;;;;14.00;6.25;;;17.90;63.00;;;;;;5082792;28;20052;-38
2023/09/30 01:06:23;;;;;;;15.60;6.75;;;17.80;62.90;;;;;;5082351;28;20397;-37
2023/09/30 01:08:50;;;;;;;14.00;6.60;;;17.80;63.00;;;;;;5083713;28;20575;-36
2023/09/30 01:11:18;;;;;;;14.23;7.35;;;17.90;63.10;;;;;;5080889;28;20051;-36
2023/09/30 01:13:47;;;;;;;9.60;4.93;;;17.80;63.10;;;;;;5081782;28;20056;-36
2023/09/30 01:16:14;;;;;;;8.10;5.18;;;17.80;63.10;;;;;;5081655;28;20511;-36
2023/09/30 01:18:43;;;;;;;12.77;5.53;;;17.80;62.90;;;;;;5082280;28;20043;-37
2023/09/30 01:21:11;;;;;;;11.38;5.18;;;17.80;62.60;;;;;;5080788;28;20047;-36
2023/09/30 01:23:40;;;;;;;10.27;5.10;;;17.80;62.50;;;;;;5084613;28;20048;-36
2023/09/30 01:26:09;;;;;;;14.45;6.90;;;17.80;62.50;;;;;;5083229;28;20052;-36
2023/09/30 01:28:37;;;;;;;22.42;7.20;;;17.70;62.50;;;;;;5083062;28;20059;-37
2023/09/30 01:31:04;;;;;;;23.00;7.65;;;17.80;62.60;;;;;;5082519;28;20048;-36
2023/09/30 01:33:32;;;;;;;16.50;7.80;;;17.70;62.60;;;;;;5082688;28;20056;-36
2023/09/30 01:36:00;;;;;;;18.02;7.45;;;17.70;62.70;;;;;;5083590;28;20056;-35
2023/09/30 01:38:27;;;;;;;14.38;6.45;;;17.70;62.90;;;;;;5083839;28;20066;-36
2023/09/30 01:40:56;;;;;;;14.77;6.75;;;17.70;63.10;;;;;;5082826;28;20052;-38
2023/09/30 01:43:23;;;;;;;16.98;7.43;;;17.70;63.20;;;;;;5082716;28;20052;-36
2023/09/30 01:45:50;;;;;;;20.33;7.30;;;17.60;63.30;;;;;;5082296;28;20495;-36
2023/09/30 01:48:18;;;;;;;6.10;4.63;;;17.70;63.30;;;;;;5082524;28;20059;-36
2023/09/30 01:50:45;;;;;;;8.07;5.10;;;17.70;63.00;;;;;;5084222;28;20052;-36
2023/09/30 01:53:12;;;;;;;12.77;5.85;;;17.70;62.70;;;;;;5082998;28;20407;-40
2023/09/30 01:55:39;;;;;;;11.50;5.60;;;17.70;62.40;;;;;;5082587;28;20574;-42
2023/09/30 01:58:11;;;;;;;12.32;6.00;;;17.60;62.10;;;;;;5081931;28;20055;-41
2023/09/30 02:00:38;;;;;;;11.90;6.15;;;17.60;61.90;;;;;;5082117;28;20055;-40
2023/09/30 02:03:05;;;;;;;15.63;6.65;;;17.60;62.00;;;;;;5083165;28;20048;-40
2023/09/30 02:05:32;;;;;;;11.07;6.38;;;17.60;62.00;;;;;;5082939;28;20052;-41
2023/09/30 02:08:00;;;;;;;16.25;7.00;;;17.60;62.00;;;;;;5083287;28;20052;-41
2023/09/30 02:10:27;;;;;;;12.80;6.57;;;17.60;62.00;;;;;;5083059;28;20055;-42
2023/09/30 02:12:54;;;;;;;13.48;6.38;;;17.60;62.20;;;;;;5083988;28;20385;-40
2023/09/30 02:15:23;;;;;;;12.05;7.15;;;17.50;61.90;;;;;;5083539;28;20058;-43
2023/09/30 02:17:50;;;;;;;10.13;6.30;;;17.50;62.00;;;;;;5082263;28;20059;-40
2023/09/30 02:20:19;;;;;;;12.55;6.25;;;17.50;62.00;;;;;;5081849;28;20404;-44
2023/09/30 02:22:47;;;;;;;11.93;5.78;;;17.50;62.00;;;;;;5082051;28;20408;-41
2023/09/30 02:25:14;;;;;;;11.85;5.93;;;17.50;61.80;;;;;;5082512;28;20618;-41
2023/09/30 02:27:42;;;;;;;16.92;6.60;;;17.50;61.70;;;;;;5082605;28;20500;-40
2023/09/30 02:30:11;;;;;;;13.38;6.85;;;17.50;61.50;;;;;;5083082;28;20081;-41
2023/09/30 02:32:41;;;;;;;12.80;6.47;;;17.40;61.30;;;;;;5082450;28;20260;-40
2023/09/30 02:35:10;;;;;;;14.90;6.78;;;17.50;61.30;;;;;;5082627;28;20059;-40
2023/09/30 02:37:38;;;;;;;12.65;6.93;;;17.40;61.30;;;;;;5082700;28;20056;-41
2023/09/30 02:40:09;;;;;;;14.05;8.23;;;17.40;61.40;;;;;;5081092;28;20052;-41
2023/09/30 02:42:37;;;;;;;15.43;8.52;;;17.40;61.50;;;;;;5082869;28;20047;-41
2023/09/30 02:45:05;;;;;;;16.92;8.90;;;17.40;61.60;;;;;;5082683;28;20519;-39
2023/09/30 02:47:32;;;;;;;20.25;10.05;;;17.40;61.70;;;;;;5076266;28;20475;-41
2023/09/30 02:50:02;;;;;;;15.65;9.98;;;17.40;61.70;;;;;;5080124;28;20058;-41
2023/09/30 02:52:30;;;;;;;16.92;9.88;;;17.40;61.70;;;;;;5080908;28;20051;-40
2023/09/30 02:54:57;;;;;;;17.65;9.85;;;17.40;61.60;;;;;;5082150;28;20420;-40
2023/09/30 02:57:25;;;;;;;15.48;9.18;;;17.30;61.40;;;;;;5082229;28;20060;-40
2023/09/30 02:59:54;;;;;;;16.77;10.30;;;17.30;61.50;;;;;;5083079;28;20416;-40
2023/09/30 03:02:22;;;;;;;16.00;8.70;;;17.30;61.40;;;;;;5079901;28;20048;-41
2023/09/30 03:04:50;;;;;;;16.73;9.45;;;17.30;61.40;;;;;;5081249;28;20060;-36
2023/09/30 03:07:20;;;;;;;13.38;8.50;;;17.30;61.40;;;;;;5082375;28;20063;-36
2023/09/30 03:09:47;;;;;;;14.65;8.77;;;17.30;61.30;;;;;;5080675;28;20059;-36
2023/09/30 03:12:15;;;;;;;14.45;8.23;;;17.30;61.20;;;;;;5082572;28;20057;-36
2023/09/30 03:14:45;;;;;;;12.23;8.05;;;17.30;61.10;;;;;;5079299;28;20044;-36
2023/09/30 03:17:12;;;;;;;14.20;8.02;;;17.20;61.10;;;;;;5080227;28;20044;-36
2023/09/30 03:19:39;;;;;;;12.77;8.23;;;17.20;61.10;;;;;;5081246;28;20052;-37
2023/09/30 03:22:10;;;;;;;15.57;8.80;;;17.20;61.10;;;;;;5081579;28;20480;-37
2023/09/30 03:24:41;;;;;;;10.93;8.40;;;17.20;61.10;;;;;;5081444;28;20060;-36
2023/09/30 03:27:08;;;;;;;13.00;8.63;;;17.20;61.10;;;;;;5081749;28;20476;-37
2023/09/30 03:29:38;;;;;;;18.02;10.52;;;17.20;61.00;;;;;;5081576;28;21220;-37
2023/09/30 03:32:05;;;;;;;12.90;9.30;;;17.20;61.00;;;;;;5080810;28;20059;-37
2023/09/30 03:34:32;;;;;;;15.02;8.85;;;17.10;61.00;;;;;;5080553;28;20499;-37
2023/09/30 03:36:59;;;;;;;12.68;8.32;;;17.10;60.90;;;;;;5078697;28;20048;-36
2023/09/30 03:39:27;;;;;;;9.73;7.15;;;17.10;60.80;;;;;;5081280;28;20519;-38
2023/09/30 03:41:57;;;;;;;14.50;8.57;;;17.10;60.60;;;;;;5082172;28;20479;-38
2023/09/30 03:44:25;;;;;;;13.07;8.00;;;17.10;60.50;;;;;;5080788;28;20056;-36
2023/09/30 03:46:52;;;;;;;13.05;7.28;;;17.00;60.60;;;;;;5081035;28;20060;-37
2023/09/30 03:49:20;;;;;;;15.40;8.98;;;17.00;60.90;;;;;;5080817;28;20055;-36
2023/09/30 03:51:50;;;;;;;13.88;7.85;;;17.00;61.10;;;;;;5080295;28;20055;-36
2023/09/30 03:54:18;;;;;;;12.45;6.95;;;17.00;61.20;;;;;;5080586;28;20044;-36
2023/09/30 03:56:46;;;;;;;10.05;6.88;;;17.00;61.20;;;;;;5080549;28;20067;-36
2023/09/30 03:59:15;;;;;;;9.48;6.95;;;16.90;61.00;;;;;;5083775;28;20530;-37
2023/09/30 04:01:44;;;;;;;16.02;7.75;;;16.90;60.90;;;;;;5083992;28;20416;-36
2023/09/30 04:04:11;;;;;;;10.70;7.45;;;16.90;60.80;;;;;;5083280;28;20055;-38
2023/09/30 04:06:38;;;;;;;24.05;9.93;;;16.90;60.60;;;;;;5084337;28;20048;-38
2023/09/30 04:09:09;;;;;;;23.13;11.30;;;16.90;60.40;;;;;;5086606;28;20044;-37
2023/09/30 04:11:37;;;;;;;18.23;7.53;;;16.90;60.30;;;;;;5084444;28;20407;-36
2023/09/30 04:14:05;;;;;;;15.63;6.63;;;16.90;60.20;;;;;;5085993;28;20075;-36
2023/09/30 04:16:35;;;;;;;26.00;7.22;;;16.80;59.90;;;;;;5081229;28;20063;-38
2023/09/30 04:19:02;;;;;;;11.90;6.90;;;16.80;59.70;;;;;;5083797;28;20059;-36
2023/09/30 04:21:33;;;;;;;11.93;7.43;;;16.70;59.80;;;;;;5085949;28;20138;-36
2023/09/30 04:24:00;;;;;;;13.80;7.95;;;16.70;59.90;;;;;;5082624;28;20476;-38
2023/09/30 04:26:28;;;;;;;12.75;8.10;;;16.70;60.00;;;;;;5084659;28;20052;-37
2023/09/30 04:28:56;;;;;;;18.92;8.60;;;16.60;60.10;;;;;;5083715;28;20071;-38
2023/09/30 04:31:24;;;;;;;13.57;8.80;;;16.60;60.20;;;;;;5084041;28;20401;-36
2023/09/30 04:33:52;;;;;;;14.77;8.30;;;16.60;60.40;;;;;;5081380;28;20059;-36
2023/09/30 04:36:21;;;;;;;15.05;7.88;;;16.60;60.50;;;;;;5085745;28;20048;-36
2023/09/30 04:38:48;;;;;;;19.20;9.60;;;16.60;60.50;;;;;;5085065;28;20056;-36
2023/09/30 04:41:15;;;;;;;14.15;8.20;;;16.50;60.50;;;;;;5081464;28;20657;-36
2023/09/30 04:43:43;;;;;;;19.77;8.70;;;16.50;60.40;;;;;;5085284;28;20425;-36
2023/09/30 04:46:12;;;;;;;15.32;8.00;;;16.50;60.40;;;;;;5083563;28;20052;-37
2023/09/30 04:48:39;;;;;;;13.93;8.52;;;16.50;60.50;;;;;;5084344;28;21396;-36
2023/09/30 04:51:10;;;;;;;12.32;7.72;;;16.50;60.50;;;;;;5084636;28;20063;-35
2023/09/30 04:53:38;;;;;;;11.82;7.10;;;16.50;60.40;;;;;;5080658;28;20412;-38
2023/09/30 04:56:06;;;;;;;15.82;8.57;;;16.50;60.40;;;;;;5081441;28;20048;-38
2023/09/30 04:58:34;;;;;;;10.40;7.07;;;16.50;60.40;;;;;;5081220;28;20641;-36
2023/09/30 05:01:01;;;;;;;14.38;7.70;;;16.40;60.30;;;;;;5082094;28;20060;-35
2023/09/30 05:03:29;;;;;;;22.00;11.15;;;16.50;60.30;;;;;;5083723;28;20052;-36
2023/09/30 05:05:58;;;;;;;36.58;15.77;;;16.40;60.30;;;;;;5084082;28;20055;-36
2023/09/30 05:08:28;;;;;;;18.50;9.48;;;16.40;60.20;;;;;;5082672;28;20056;-36
2023/09/30 05:10:57;;;;;;;14.02;8.10;;;16.40;60.00;;;;;;5081654;28;20051;-36
2023/09/30 05:13:24;;;;;;;14.23;7.55;;;16.40;60.00;;;;;;5080972;28;20059;-35
2023/09/30 05:15:52;;;;;;;12.15;7.38;;;16.40;60.10;;;;;;5080536;28;20067;-37
2023/09/30 05:18:19;;;;;;;18.75;7.70;;;16.30;60.10;;;;;;5081985;28;20420;-35
2023/09/30 05:20:46;;;;;;;13.30;7.30;;;16.30;60.20;;;;;;5082900;28;20052;-36
2023/09/30 05:23:14;;;;;;;15.90;7.07;;;16.30;60.20;;;;;;5082935;28;20052;-36
2023/09/30 05:25:43;;;;;;;11.15;6.90;;;16.30;60.20;;;;;;5081487;28;20526;-36
2023/09/30 05:28:11;;;;;;;12.43;6.68;;;16.30;60.30;;;;;;5082331;28;20048;-38
2023/09/30 05:30:38;;;;;;;10.95;6.88;;;16.30;60.30;;;;;;5083172;28;20059;-36
2023/09/30 05:33:06;;;;;;;11.18;6.57;;;16.30;60.30;;;;;;5081585;28;20051;-36
2023/09/30 05:35:34;;;;;;;16.38;6.75;;;16.30;60.10;;;;;;5081275;28;20054;-36
2023/09/30 05:38:03;;;;;;;11.82;5.88;;;16.30;59.90;;;;;;5082837;28;20389;-37
2023/09/30 05:40:31;;;;;;;13.38;6.55;;;16.20;59.80;;;;;;5083158;28;20169;-36
2023/09/30 05:43:00;;;;;;;17.35;6.53;;;16.20;59.80;;;;;;5082422;28;20052;-38
2023/09/30 05:45:28;;;;;;;12.90;6.72;;;16.20;59.80;;;;;;5083517;28;20051;-36
2023/09/30 05:47:57;;;;;;;9.73;6.25;;;16.20;59.80;;;;;;5081077;28;20511;-38
2023/09/30 05:50:26;;;;;;;8.13;5.38;;;16.20;59.80;;;;;;5082127;28;20059;-36
2023/09/30 05:52:53;;;;;;;11.00;5.53;;;16.10;59.80;;;;;;5082883;28;20048;-37
2023/09/30 05:55:21;;;;;;;8.20;5.32;;;16.10;60.30;;;;;;5082845;28;20056;-36
2023/09/30 05:57:49;;;;;;;6.70;4.30;;;16.10;60.00;;;;;;5082436;28;20044;-37
2023/09/30 06:00:22;;;;;;;14.02;5.10;;;16.10;60.00;;;;;;5082459;28;20055;-36
2023/09/30 06:02:51;;;;;;;8.13;5.28;;;16.10;60.00;;;;;;5080493;28;20059;-37
2023/09/30 06:05:19;;;;;;;19.20;4.70;;;16.10;60.00;;;;;;5082041;28;20055;-37
2023/09/30 06:07:46;;;;;;;19.98;4.50;;;16.10;59.90;;;;;;5081866;28;20052;-35
2023/09/30 06:10:15;;;;;;;8.82;5.03;;;16.00;59.80;;;;;;5082320;28;20488;-35
2023/09/30 06:12:43;;;;;;;17.08;4.65;;;16.00;59.80;;;;;;5083239;28;20055;-36
2023/09/30 06:15:13;;;;;;;7.65;4.72;;;16.00;59.90;;;;;;5081743;28;20040;-36
2023/09/30 06:17:41;;;;;;;46.55;4.95;;;16.00;59.90;;;;;;5081448;28;20055;-35
2023/09/30 06:20:16;;;;;;;24.60;5.03;;;16.00;59.80;;;;;;5080282;28;20048;-36
2023/09/30 06:22:45;;;;;;;14.93;4.90;;;16.00;59.70;;;;;;5082226;28;20048;-35
2023/09/30 06:25:13;;;;;;;10.27;5.68;;;16.00;59.70;;;;;;5077869;28;20389;-38
2023/09/30 06:27:40;;;;;;;28.15;5.45;;;16.00;59.80;;;;;;5081888;28;20059;-36
2023/09/30 06:30:10;;;;;;;15.43;5.82;;;15.90;59.70;;;;;;5077413;28;20408;-36
2023/09/30 06:32:38;;;;;;;15.63;5.47;;;16.00;59.80;;;;;;5079634;28;20056;-37
2023/09/30 06:35:10;;;;;;;15.05;5.22;;;15.90;60.30;;;;;;5081191;28;20044;-37
2023/09/30 06:37:38;;;;;;;7.32;4.85;;;15.90;59.70;;;;;;5080606;28;20059;-37
2023/09/30 06:40:08;;;;;;;42.55;5.68;;;15.90;59.70;;;;;;5080753;28;21307;-36
2023/09/30 06:42:36;;;;;;;13.55;5.20;;;15.90;59.70;;;;;;5082823;28;20044;-36
2023/09/30 06:45:05;;;;;;;10.25;4.40;;;15.90;59.80;;;;;;5080480;28;20063;-36
2023/09/30 06:47:33;;;;;;;6.18;4.25;;;15.90;59.90;;;;;;5080499;28;20056;-35
2023/09/30 06:50:07;;;;;;;6.90;3.95;;;15.90;60.00;;;;;;5080760;28;20464;-35
2023/09/30 06:52:37;;;;;;;7.07;4.05;;;15.80;60.20;;;;;;5081336;28;20063;-35
2023/09/30 06:55:05;;;;;;;27.20;13.48;;;15.90;60.40;;;;;;5081944;28;20050;-38
2023/09/30 06:57:34;;;;;;;23.42;12.68;;;15.90;60.60;;;;;;5081842;28;20060;-35
2023/09/30 07:00:03;;;;;;;11.00;5.63;;;15.90;60.70;;;;;;5081375;28;20051;-35
2023/09/30 07:02:31;;;;;;;11.40;4.57;;;15.90;60.80;;;;;;5078330;28;20052;-35
2023/09/30 07:04:58;;;;;;;7.57;4.47;;;15.90;60.90;;;;;;5081428;28;20047;-35
2023/09/30 07:07:25;;;;;;;12.95;4.70;;;15.90;60.90;;;;;;5081986;28;20066;-38
2023/09/30 07:09:54;;;;;;;5.57;4.00;;;16.00;61.10;;;;;;5084184;28;20063;-35
2023/09/30 07:12:21;;;;;;;8.38;4.50;;;16.00;61.20;;;;;;5080338;28;20051;-35
2023/09/30 07:14:48;;;;;;;18.02;4.95;;;16.00;61.30;;;;;;5081170;28;20055;-35
2023/09/30 07:17:16;;;;;;;7.22;4.50;;;16.00;61.30;;;;;;5080463;28;20506;-35
2023/09/30 07:19:43;;;;;;;8.18;4.03;;;16.00;61.40;;;;;;5079411;28;20753;-35
2023/09/30 07:22:11;;;;;;;8.90;4.90;;;16.00;61.60;;;;;;5079960;28;20051;-35
2023/09/30 07:24:39;;;;;;;13.57;5.35;;;16.10;61.80;;;;;;5080836;28;20051;-35
2023/09/30 07:27:10;;;;;;;6.90;4.68;;;16.10;61.80;;;;;;5080421;28;20048;-36
2023/09/30 07:29:38;;;;;;;11.95;4.90;;;16.10;61.80;;;;;;5079597;28;20060;-35
2023/09/30 07:32:07;;;;;;;9.75;4.88;;;16.20;61.90;;;;;;5077521;28;22208;-36
2023/09/30 07:34:35;;;;;;;9.38;4.93;;;16.20;61.90;;;;;;5080338;28;20049;-35
2023/09/30 07:37:02;;;;;;;11.10;4.75;;;16.20;62.00;;;;;;5082277;28;20048;-35
2023/09/30 07:39:30;;;;;;;6.53;4.20;;;16.20;62.10;;;;;;5081173;28;20052;-36
2023/09/30 07:45:21;;;;;;;14.98;5.00;;;16.30;62.40;;;;;;5085759;28;20047;-40
2023/09/30 07:51:13;;;;;;;6.47;3.60;;;16.40;62.60;;;;;;5088279;28;20051;-41
2023/09/30 07:53:41;;;;;;;9.13;3.88;;;16.40;62.50;;;;;;5081126;28;20062;-40
2023/09/30 07:56:08;;;;;;;6.10;3.53;;;16.50;62.70;;;;;;5076768;28;20040;-41
2023/09/30 07:58:35;;;;;;;9.38;3.60;;;16.50;62.70;;;;;;5078879;28;20064;-39
2023/09/30 08:04:26;;;;;;;8.30;4.25;;;16.60;62.80;;;;;;5078713;28;20050;-39
2023/09/30 08:06:54;;;;;;;8.98;4.25;;;16.70;62.70;;;;;;5082583;28;20063;-39
2023/09/30 08:09:23;;;;;;;7.78;4.07;;;16.70;62.70;;;;;;5081162;28;20052;-40
2023/09/30 08:11:51;;;;;;;10.20;4.95;;;16.80;62.80;;;;;;5081016;28;20059;-39
2023/09/30 08:14:18;;;;;;;8.05;4.95;;;16.80;62.80;;;;;;5080613;28;20413;-39
2023/09/30 08:16:45;;;;;;;11.55;5.65;;;16.80;62.70;;;;;;5080122;28;21160;-40
2023/09/30 08:19:12;;;;;;;9.90;5.25;;;16.90;62.70;;;;;;5080698;28;20044;-40
2023/09/30 08:21:40;;;;;;;9.75;5.57;;;16.90;62.80;;;;;;5079996;28;20055;-42
2023/09/30 08:24:09;;;;;;;8.57;4.80;;;17.00;62.80;;;;;;5080121;28;20044;-40
2023/09/30 08:26:37;;;;;;;7.85;4.45;;;17.00;62.60;;;;;;5080451;28;20055;-40
2023/09/30 08:29:06;;;;;;;8.70;4.80;;;17.10;62.60;;;;;;5081210;28;20060;-40
2023/09/30 08:31:33;;;;;;;8.90;4.43;;;17.10;62.60;;;;;;5078410;28;20055;-40
2023/09/30 08:34:03;;;;;;;11.63;5.85;;;17.20;62.70;;;;;;5080750;28;20060;-39
2023/09/30 08:36:31;;;;;;;10.65;5.38;;;17.20;62.70;;;;;;5081161;28;20056;-39
2023/09/30 08:38:59;;;;;;;10.25;6.55;;;17.20;62.60;;;;;;5081045;28;20059;-39
2023/09/30 08:41:32;;;;;;;9.90;5.45;;;17.30;62.70;;;;;;5080807;28;20052;-40
2023/09/30 08:44:02;;;;;;;15.57;6.13;;;17.30;62.50;;;;;;5082224;28;20059;-40
2023/09/30 08:46:32;;;;;;;11.60;6.30;;;17.30;62.40;;;;;;5083573;28;20509;-41
2023/09/30 08:49:00;;;;;;;10.30;5.85;;;17.40;62.50;;;;;;5083445;28;20052;-42
2023/09/30 08:51:29;;;;;;;10.35;5.35;;;17.40;62.60;;;;;;5084092;28;20059;-41
2023/09/30 08:53:59;;;;;;;15.10;6.38;;;17.50;62.70;;;;;;5084234;28;20388;-40
2023/09/30 08:56:29;;;;;;;11.15;5.45;;;17.50;62.70;;;;;;5081574;28;20044;-36
2023/09/30 08:58:58;;;;;;;11.07;6.35;;;17.50;62.70;;;;;;5085189;28;20044;-37
2023/09/30 09:01:26;;;;;;;14.43;7.20;;;17.60;62.70;;;;;;5083239;28;20060;-38
2023/09/30 09:03:53;;;;;;;14.00;6.93;;;17.60;62.80;;;;;;5083263;28;20293;-36
2023/09/30 09:06:22;;;;;;;13.90;7.25;;;17.60;62.80;;;;;;5080430;28;20500;-36
2023/09/30 09:08:49;;;;;;;13.05;7.03;;;17.70;62.90;;;;;;5081948;28;20055;-37
2023/09/30 09:11:18;;;;;;;14.30;7.90;;;17.70;63.00;;;;;;5082260;28;20052;-36
2023/09/30 09:13:50;;;;;;;17.35;8.15;;;17.80;63.20;;;;;;5082604;28;20614;-36
2023/09/30 09:16:18;;;;;;;15.68;7.72;;;17.80;63.10;;;;;;5077120;28;20416;-37
2023/09/30 09:18:47;;;;;;;11.57;7.28;;;17.80;63.10;;;;;;5078501;28;20063;-35
2023/09/30 09:21:15;;;;;;;16.00;7.82;;;17.90;63.20;;;;;;5080748;28;20063;-36
2023/09/30 09:23:44;;;;;;;16.83;7.72;;;17.90;63.30;;;;;;5077675;28;20052;-36
2023/09/30 09:26:12;;;;;;;16.83;7.72;;;17.90;63.40;;;;;;5080907;28;20596;-36
2023/09/30 09:28:42;;;;;;;16.33;8.23;;;18.00;63.70;;;;;;5081775;28;20056;-37
2023/09/30 09:31:26;;;;;;;16.50;8.60;;;18.00;63.70;;;;;;5082770;28;20480;-36
2023/09/30 09:33:54;;;;;;;18.30;9.23;;;18.00;63.80;;;;;;5081545;28;20056;-37
2023/09/30 09:36:21;;;;;;;15.52;8.80;;;18.10;63.70;;;;;;5083581;28;20056;-36
2023/09/30 09:38:53;;;;;;;18.15;9.27;;;18.10;63.70;;;;;;5082169;28;20055;-35
2023/09/30 09:41:20;;;;;;;17.90;9.20;;;18.10;63.80;;;;;;5080614;28;20052;-36
2023/09/30 09:43:51;;;;;;;17.42;8.35;;;18.10;63.80;;;;;;5081525;28;20051;-36
2023/09/30 09:46:19;;;;;;;16.70;8.77;;;18.20;64.70;;;;;;5082210;28;20048;-37
2023/09/30 09:48:47;;;;;;;19.30;9.48;;;18.20;63.90;;;;;;5079003;28;20082;-37
2023/09/30 09:51:15;;;;;;;18.33;8.43;;;18.30;64.10;;;;;;5077951;28;20058;-35
2023/09/30 09:53:43;;;;;;;16.65;9.05;;;18.30;64.20;;;;;;5079870;28;20044;-37
2023/09/30 09:56:11;;;;;;;23.42;9.07;;;18.30;64.30;;;;;;5081630;28;20040;-35
2023/09/30 09:58:42;;;;;;;21.58;9.68;;;18.30;64.50;;;;;;5080005;28;20052;-37
2023/09/30 10:01:11;;;;;;;23.00;9.38;;;18.50;64.70;;;;;;5080958;28;20496;-36
2023/09/30 10:03:39;;;;;;;20.35;8.98;;;18.50;64.50;;;;;;5080448;28;20051;-36
2023/09/30 10:06:08;;;;;;;21.42;9.52;;;18.60;64.30;;;;;;5082822;28;20055;-35
2023/09/30 10:08:40;;;;;;;19.80;8.77;;;18.60;64.10;;;;;;5081266;28;20408;-36
2023/09/30 10:11:08;;;;;;;16.58;7.85;;;18.70;63.70;;;;;;5078927;28;20055;-36
2023/09/30 10:13:55;;;;;;;20.13;7.82;;;18.70;63.40;;;;;;5081824;28;20055;-38
2023/09/30 10:16:51;;;;;;;23.88;8.27;;;18.80;63.50;;;;;;5079811;28;20059;-36
2023/09/30 10:19:23;;;;;;;15.57;7.80;;;18.90;63.40;;;;;;5078398;28;20052;-36
2023/09/30 10:22:21;;;;;;;22.88;9.35;;;19.00;63.40;;;;;;5076526;28;20503;-36
2023/09/30 10:24:49;;;;;;;18.35;7.47;;;19.00;64.20;;;;;;5081598;28;20075;-37
2023/09/30 10:27:34;;;;;;;26.08;8.85;;;19.10;63.40;;;;;;5082525;28;20083;-38
2023/09/30 10:30:13;;;;;;;21.15;7.57;;;19.20;63.00;;;;;;5080400;28;20055;-37
2023/09/30 10:33:15;;;;;;;18.88;7.88;;;19.30;62.70;;;;;;5077795;28;20051;-36
2023/09/30 10:35:48;;;;;;;16.98;7.25;;;19.30;61.70;;;;;;5079010;28;20500;-37
2023/09/30 10:38:37;;;;;;;15.70;7.20;;;19.30;61.30;;;;;;5079480;28;20484;-36
2023/09/30 10:41:05;;;;;;;12.75;5.85;;;19.40;61.00;;;;;;5078206;28;20048;-36
2023/09/30 10:43:33;;;;;;;19.52;6.90;;;19.40;61.00;;;;;;5080567;28;20051;-37
2023/09/30 10:46:00;;;;;;;18.33;6.97;;;19.50;60.30;;;;;;5078982;28;20048;-36
2023/09/30 10:48:39;;;;;;;16.90;6.78;;;19.40;59.60;;;;;;5079365;28;20051;-36
2023/09/30 10:51:18;;;;;;;14.05;6.70;;;19.40;59.10;;;;;;5076678;28;20052;-37
2023/09/30 10:53:48;;;;;;;15.02;5.82;;;19.40;58.40;;;;;;5078756;28;20056;-36
2023/09/30 10:56:16;;;;;;;14.57;6.13;;;19.40;58.60;;;;;;5077157;28;20067;-36
2023/09/30 10:58:45;;;;;;;16.67;5.75;;;19.30;58.70;;;;;;5081459;28;20055;-37
2023/09/30 11:01:13;;;;;;;13.80;5.85;;;19.30;58.70;;;;;;5077672;28;20051;-35
2023/09/30 11:03:43;;;;;;;15.35;6.63;;;19.40;58.60;;;;;;5077583;28;20059;-38
2023/09/30 11:06:13;;;;;;;12.82;5.40;;;19.40;58.80;;;;;;5078253;28;20526;-35
2023/09/30 11:08:46;;;;;;;13.02;5.60;;;19.40;58.90;;;;;;5076929;28;20396;-35
2023/09/30 11:11:14;;;;;;;13.25;5.28;;;19.40;58.40;;;;;;5079242;28;20059;-36
2023/09/30 11:13:41;;;;;;;10.95;5.22;;;19.50;58.10;;;;;;5077702;28;20059;-38
2023/09/30 11:16:09;;;;;;;13.82;4.75;;;19.50;57.30;;;;;;5077583;28;20048;-38
2023/09/30 11:18:37;;;;;;;14.48;5.28;;;19.50;57.30;;;;;;5076462;28;20056;-35
2023/09/30 11:21:08;;;;;;;15.68;5.60;;;19.50;57.20;;;;;;5076341;28;20052;-35
2023/09/30 11:23:36;;;;;;;18.05;5.47;;;19.50;57.60;;;;;;5076708;28;20052;-36
2023/09/30 11:26:04;;;;;;;11.20;4.55;;;19.50;57.90;;;;;;5074731;28;20044;-37
2023/09/30 11:28:40;;;;;;;10.70;4.20;;;19.60;57.90;;;;;;5075678;28;20056;-35
2023/09/30 11:31:13;;;;;;;9.70;4.20;;;19.60;57.70;;;;;;5075987;28;20067;-36
2023/09/30 11:33:52;;;;;;;7.97;3.57;;;19.60;57.50;;;;;;5073237;28;20515;-37
2023/09/30 11:36:22;;;;;;;9.73;4.38;;;19.70;57.30;;;;;;5076357;28;20055;-37
2023/09/30 11:38:52;;;;;;;8.32;3.63;;;19.70;56.90;;;;;;5080229;28;20055;-38
2023/09/30 11:41:19;;;;;;;10.77;4.10;;;19.80;56.80;;;;;;5080880;28;20052;-36
2023/09/30 11:44:01;;;;;;;6.18;3.58;;;19.80;57.10;;;;;;5081892;28;20059;-35
2023/09/30 11:46:29;;;;;;;13.45;4.63;;;19.90;56.50;;;;;;5080288;28;20484;-37
2023/09/30 11:49:01;;;;;;;11.75;4.57;;;19.90;55.60;;;;;;5078387;28;20048;-37
2023/09/30 11:51:31;;;;;;;8.98;4.22;;;19.90;55.40;;;;;;5079905;28;20416;-35
2023/09/30 11:53:58;;;;;;;11.77;4.70;;;20.00;55.90;;;;;;5080700;28;20092;-35
2023/09/30 11:56:29;;;;;;;12.13;4.78;;;20.00;55.80;;;;;;5080328;28;20052;-35
2023/09/30 11:58:58;;;;;;;12.77;5.53;;;20.00;56.00;;;;;;5081615;28;20393;-37
2023/09/30 12:01:26;;;;;;;10.38;4.93;;;20.00;55.70;;;;;;5080412;28;20087;-36
2023/09/30 12:03:55;;;;;;;10.50;4.50;;;20.10;55.30;;;;;;5080297;28;20048;-37
2023/09/30 12:06:23;;;;;;;7.72;4.75;;;20.10;55.70;;;;;;5081268;28;20056;-37
2023/09/30 12:08:52;;;;;;;11.40;4.78;;;20.00;55.90;;;;;;5076497;28;20055;-37
2023/09/30 12:11:20;;;;;;;9.70;4.00;;;20.10;55.80;;;;;;5080698;28;20048;-36
2023/09/30 12:13:49;;;;;;;9.90;4.20;;;20.10;55.10;;;;;;5080388;28;20052;-35
2023/09/30 12:16:16;;;;;;;15.23;5.28;;;20.10;54.90;;;;;;5080242;28;20052;-36
2023/09/30 12:18:43;;;;;;;10.50;4.75;;;20.10;53.80;;;;;;5081350;28;20055;-36
2023/09/30 12:21:13;;;;;;;11.18;4.63;;;20.10;54.10;;;;;;5085214;28;20055;-35
2023/09/30 12:23:41;;;;;;;8.82;4.32;;;20.10;54.60;;;;;;5083867;28;20071;-36
2023/09/30 12:26:11;;;;;;;15.20;5.35;;;20.00;54.30;;;;;;5084778;28;20055;-40
2023/09/30 12:28:40;;;;;;;10.70;4.32;;;20.10;54.60;;;;;;5085043;28;20060;-40
2023/09/30 12:31:08;;;;;;;8.60;4.15;;;20.10;54.80;;;;;;5082637;28;20051;-41
2023/09/30 12:33:35;;;;;;;8.98;4.10;;;20.10;54.90;;;;;;5083226;28;20059;-40
2023/09/30 12:36:02;;;;;;;9.00;4.25;;;20.10;54.30;;;;;;5083763;28;20044;-40
2023/09/30 12:38:29;;;;;;;10.18;4.57;;;20.10;53.20;;;;;;5083605;28;20492;-39
2023/09/30 12:40:57;;;;;;;8.75;3.75;;;20.10;53.50;;;;;;5084559;28;20056;-41
2023/09/30 12:43:25;;;;;;;8.07;3.85;;;20.10;53.40;;;;;;5083509;28;20055;-39
2023/09/30 12:45:52;;;;;;;8.40;3.75;;;20.10;52.80;;;;;;5083706;28;20412;-40
2023/09/30 12:48:20;;;;;;;11.52;3.85;;;20.10;52.80;;;;;;5083795;28;20044;-44
2023/09/30 12:50:47;;;;;;;10.10;5.20;;;20.10;52.80;;;;;;5084459;28;20079;-40
2023/09/30 12:53:15;;;;;;;7.72;3.65;;;20.00;53.10;;;;;;5083639;28;20059;-41
2023/09/30 12:55:42;;;;;;;10.32;3.65;;;20.10;53.60;;;;;;5085001;28;20055;-41
2023/09/30 12:58:10;;;;;;;7.90;3.65;;;20.20;53.70;;;;;;5083805;28;20060;-42